Airfield :
LOGIN :

Register | Disclaimer

   EN    FR    IT 

 










Legend :    VFR   Marginal VFR   IFR   Intensive IFR   Very Intensive IFR
Visi :
Ceiling :
>= 8 km
>= 3000ft
5 to 8 km
1000 to 3000 ft
1500m to 5 km
500 to 1000 ft
800 to 1500m
200 to 500 ft
< 800m
< 200 ft
Symbols :   Thunderstorms  Fog  Heavy snow  Heavy precipitations  Wind > 20 kt
SIGMETs :     Misc.  Thunderstorms  Icing  Turbulence  Mountain Waves  Volcanic Ashes






- Airport Elevation : 580 ft


LFOA - Avord

CURRENT METAR :
  • 261100Z AUTO VRB02KT 1200 1100 R24/1500D BR OVC002 M02/M02 Q1035 TEMPO VV/// BECMG 3000 BR

EXPIRED METARs :
  • 261030Z AUTO VRB03KT 1100 1000 R24/1100D BR OVC002 M02/M02 Q1035 TEMPO VV/// BECMG 3000 BR
  • 261000Z AUTO 03004KT 2000 BR OVC002 M02/M02 Q1035 TEMPO 0800 FZFG VV///
  • 260930Z AUTO 07004KT 030V110 1100 R24/1100U BR OVC002 M02/M02 Q1035 TEMPO 0800 FZFG VV///
  • 260900Z AUTO VRB01KT 1400 1300 R24/1400D BR OVC002 M02/M02 Q1035 TEMPO 0800 FZFG VV///
  • 260830Z AUTO VRB02KT 2600 BR OVC003 M02/M02 Q1035 TEMPO 0800 FZFG VV///

TAF AMD TAF LFOA
Valid from the 26 at 09:00 until the 27 at 09:00 UTC


260851Z 2609/2709 VRB02KT 3000 BR OVC002 TX01/2614Z TNM02/2706Z
TEMPO 2609/2612 0800 FZFG VV///
PROB40
TEMPO 2614/2617 6000 NSW BKN004
TEMPO 2618/2709 0400 FZFG VV///



MET'MAP, your aeronautical weather chart ! - Copyright ORBIFLY December 2007 - Disclaimer

ORBIFLY MET'MAP TEAM :

Programming & Development : Alexandra Zaïnal
Original concept : Baudouin d'Aumeries
Technical & hardware support : Manuel Goepfert
Assistance : Marc-Olivier Méhu

Contact : metmap@orbifly.com




SOURCES & CREDITS :

   NOAA